Choose a state:
Most recent flow and stage for Kansas
(Stations highlighted in red are currently above flood stage)
USGS
station
ID
USGS station name NWS
flood
stage
(ft)
Most recent
stage
(ft)
Most recent
flow
(cfs)
Historical
peaks
(cfs)
Most recent
local
date/time
NWS
station
ID
06814000 TURKEY C NR SENECA, KS 21 1.37 59.5 21,400 2024-06-18 22:45:00 SNCK1
06818300 MISSOURI R AT ATCHISON, KS 22 12.61

 

2024-06-18 22:30:00 ATCK1
06820475 Missouri River at Leavenworth, KS 20 8.22

 

2024-06-18 22:00:00 LEVK1
06827000 SF REPUBLICAN R NR CO-KS ST LINE, KS   3.25 0.53 3,200 2024-06-18 22:30:00  
06845110 SAPPA C NR LYLE, KS 17 5.50 4.74 994 2024-06-18 22:30:00 NCRK1
06846500 BEAVER C AT CEDAR BLUFFS, KS 16 2.98 0.00 7,940 2024-06-18 22:00:00 CDBK1
06847900 PRAIRIE DOG C AB KEITH SEBELIUS LAKE, KS 11 3.55 2.61 65,500 2024-06-18 21:45:00 CLNK1
06848500 PRAIRIE DOG C NR WOODRUFF, KS 19 2.91 18.5 15,000 2024-06-18 22:30:00 WDRK1
06853500 REPUBLICAN R NR HARDY, NE 11 2.20 148 225,000 2024-06-18 22:30:00 HDYN1
06853800 WHITE ROCK C NR BURR OAK, KS 15 2.58 29.5 15,800 2024-06-18 22:45:00 BURK1
06854500 REPUBLICAN R AT SCANDIA, KS 10 1.80 268 215,000 2024-06-18 22:15:00 SNDK1
06855850 BUFFALO C 4 MI E OF JAMESTOWN, KS   4.05 10.9 3,960 2024-06-18 22:15:00  
06856000 REPUBLICAN R AT CONCORDIA, KS 15 4.98 144 207,000 2024-06-18 22:30:00 CNKK1
06856600 REPUBLICAN R AT CLAY CENTER, KS 15 8.74 684 195,000 2024-06-18 22:30:00 CYCK1
06857050 MILFORD LAKE NR JUNCTION CITY, KS   1146.59

 

  2024-06-18 22:30:00 MLFK1
06857100 REPUBLICAN R AT JUNCTION CITY, KS   5.58 750 33,700 2024-06-18 22:45:00  
06860000 SMOKY HILL R AT ELKADER, KS 9 3.92 0.00 71,000 2024-06-18 22:30:00 OKYK1
06860900 HACKBERRY C NR TREGO CENTER, KS   7.01 0.00 1,980 2024-06-18 22:30:00 TRCK1
06861000 SMOKY HILL R NR ARNOLD, KS 7 0.01 0.02 87,000 2024-06-18 22:30:00 ARNK1
06861500 CEDAR BLUFF RE NR ELLIS, KS   2123.57

 

  2024-06-18 22:15:00 ELSK1
06862700 SMOKY HILL R NR SCHOENCHEN, KS   2.66 1.25 20,400 2024-06-18 22:30:00 SCNK1
06862850 SMOKY HILL R BL SCHOENCHEN, KS 11 1.92 0.00 20,500 2024-06-18 22:00:00 SCSK1
06863000 SMOKY HILL R AT PFEIFER, KS   0.36 0.00 30,000 2024-06-18 22:00:00 PFRK1
06863420 BIG C NR ELLIS, KS   1.35 0.57 3,610 2024-06-18 22:15:00 RIGK1
06863500 BIG C NR HAYS, KS 26 6.71 106 22,400 2024-06-18 22:30:00 HYSK1
06864000 SMOKY HILL R NR RUSSELL, KS 18 3.40 3.95 70,000 2024-06-18 22:30:00 RSLK1
06864500 SMOKY HILL R AT ELLSWORTH, KS 20 1.50 35.4 61,000 2024-06-18 22:30:00 ELWK1
06865000 KANOPOLIS LK NR KANOPOLIS, KS   1464.95

 

  2024-06-18 22:30:00 KANK1
06865500 SMOKY HILL R NR LANGLEY, KS   3.14 65.3 45,000 2024-06-18 22:30:00  
06866000 SMOKY HILL R AT LINDSBORG, KS 21 6.54 71.7 32,000 2024-06-18 22:30:00 LNSK1
06866500 SMOKY HILL R NR MENTOR, KS 20 4.04 62.7 32,000 2024-06-18 22:45:00 MTRK1
06866900 SALINE R NR WAKEENEY, KS 13 2.47 3.39 35,100 2024-06-18 22:00:00 WAAK1
06867000 SALINE R NR RUSSELL, KS 18 4.47 17.2 41,500 2024-06-18 22:30:00 RUSK1
06867500 PARADISE C NR PARADISE, KS 14 7.90 0.01 14,800 2024-06-18 22:30:00 PDSK1
06868100 WILSON LK NR WILSON, KS   1513.33

 

  2024-06-18 22:30:00 WLSK1
06868200 SALINE R AT WILSON DAM, KS   2.68 15.2 3,320 2024-06-18 22:45:00  
06868850 SALINE R AT LINCOLN, KS 30 10.52 19.7 4,200 2024-06-18 22:45:00 LINK1
06869500 SALINE R AT TESCOTT, KS 25 5.38 25.4 61,400 2024-06-18 22:30:00 TSCK1
06869950 MULBERRY C NR SALINA, KS 24 3.49 1.06 29,900 2024-06-18 22:00:00 SLNK1
06870200 SMOKY HILL R AT NEW CAMBRIA, KS 27 5.47

 

26,400 2024-06-18 22:45:00 NCMK1
06870300 GYPSUM C NR GYPSUM, KS   20.17 13.5 11,400 2024-06-18 22:15:00 GYSK1
06871000 NF SOLOMON R AT GLADE, KS 11 2.79 8.86 23,300 2024-06-18 22:30:00 GDEK1
06871500 BOW C NR STOCKTON, KS 9 3.95 2.87 12,900 2024-06-18 22:45:00 SKTK1
06872500 NF SOLOMON R AT PORTIS, KS 15 4.47 81.7 35,700 2024-06-18 22:30:00 PTIK1
06873000 SF SOLOMON R AB WEBSTER RE, KS 8.5 1.99 4.05 55,200 2024-06-18 22:15:00 DMRK1
06873460 SF SOLOMON R AT WOODSTON, KS 12 3.88 2.48 8,710 2024-06-18 22:30:00 WODK1
06874000 SF SOLOMON R AT OSBORNE, KS 14 3.04 5.60 81,200 2024-06-18 22:30:00 OSBK1
06875900 SOLOMON R NR GLEN ELDER, KS 21 7.51 21.3 9,410 2024-06-18 21:00:00 GELK1
06876000 SOLOMON R AT BELOIT, KS 20 2.66 20.5 125,000 2024-06-18 22:30:00 BLTK1
06876070 SOLOMON R NR SIMPSON, KS   7.04

 

14,700 2024-06-18 22:15:00  
06876440 SOLOMON R NR MINNEAPOLIS, KS 26 2.61 78.4 9,770 2024-06-18 22:15:00 MPSK1
06876700 SALT C NR ADA, KS 18 3.84 5.56 16,000 2024-06-18 21:45:00 ADAK1
06876900 SOLOMON R AT NILES, KS 24 3.31 63.9 178,000 2024-06-18 22:30:00 NLSK1
06877110 MUD C NR TALMAGE, KS 30 3.56

 

  2024-06-18 22:30:00 TMGK1
06877600 SMOKY HILL R AT ENTERPRISE, KS 26 6.21 237 233,000 2024-06-18 22:45:00 ENTK1
06878000 CHAPMAN C NR CHAPMAN, KS 19 4.65 30.1 46,700 2024-06-18 22:45:00 CHPK1
06878600 LYON C NR JUNCTION CITY, KS 21 5.82 43.0 9,360 2024-06-18 22:15:00 JNCK1
06879100 KANSAS R AT FORT RILEY, KS 21 5.47 911 87,600 2024-06-18 22:30:00 FTRK1
06879650 KINGS C NR MANHATTAN, KS   3.49 0.56 10,200 2024-06-18 22:45:00  
06879805 WILDCAT C AT KEATS, KS 17 8.17

 

  2024-06-18 22:00:00 WKCK1
06879810 WILDCAT C AT SCENIC DRIVE, MANHATTAN, KS 14 2.83 2.44 6,500 2024-06-18 22:15:00 MWCK1
06879815 WILDCAT C AT SETH CHILDS RD, MANHATTAN, KS   2.80

 

8,600 2024-06-18 22:30:00 MSTK1
06879820 KANSAS R AT MANHATTAN, KS 18 6.21

 

  2024-06-18 21:45:00 MHKK1
06882510 BIG BLUE R AT MARYSVILLE, KS 35 14.84 826 55,600 2024-06-18 22:30:00 MRYK1
06884025 Little Blue River at Hollenberg, KS 19 2.37 222 59,200 2024-06-18 22:00:00 HBGK1
06884200 MILL C AT WASHINGTON, KS 18 2.79 112 14,600 2024-06-18 21:45:00 WSHK1
06884400 L BLUE R NR BARNES, KS 16 6.33 1,080 56,000 2024-06-18 22:00:00 BANK1
06884700 BIG BLUE R AT BLUE RAPIDS, KS 26.11 18.27

 

  2024-06-18 22:15:00 BLRK1
06885500 BLACK VERMILLION R NR FRANKFORT, KS 19 5.24 317 38,300 2024-06-18 22:30:00 FKFK1
06886900 TUTTLE C LK NR MANHATTAN, KS 1136 1078.47

 

  2024-06-18 22:30:00 MTTK1
06887000 BIG BLUE R NR MANHATTAN, KS 19 6.54 4,920 93,400 2024-06-18 22:00:00 MNTK1
06887500 KANSAS R AT WAMEGO, KS 19 6.54 6,120 400,000 2024-06-18 22:30:00 WMGK1
06888000 VERMILLION C NR WAMEGO, KS 20 4.02 167 38,500 2024-06-18 22:45:00 VCWK1
06888350 KANSAS R NR BELVUE, KS 20 13.20 6,400 170,000 2024-06-18 22:30:00 BVUK1
06888500 MILL C NR PAXICO, KS 21 2.99 62.0 77,200 2024-06-18 21:45:00 PXCK1
06888700 CROSS C AT ROSSVILLE, KS 25 9.05

 

  2024-06-18 22:30:00 RSSK1
06888990 KANSAS R AB TOPEKA WEIR AT TOPEKA, KS   6.95 7,560 81,300 2024-06-18 22:30:00  
06889000 KANSAS R AT TOPEKA, KS 26 9.29 7,540 469,000 2024-06-18 22:30:00 TPAK1
06889110 SOLDIER CREEK NR CORNING, KS   6.30

 

  2024-06-18 22:00:00  
06889160 SOLDIER C NR CIRCLEVILLE, KS   11.41

 

25,300 2024-06-18 22:30:00  
06889200 SOLDIER C NR DELIA, KS 26 6.57 88.9 59,600 2024-06-18 22:30:00 DELK1
06889500 SOLDIER C NR TOPEKA, KS 29 1.19 170 47,800 2024-06-18 21:45:00 TOPK1
06889585 SHUNGANUNGA C AT GAGE BLVD, TOPEKA, KS 15 4.69

 

  2024-06-18 22:15:00 SGBK1
06889630 SHUNGANUNGA C AT TOPEKA, KS 24 4.12 3.43 6,510 2024-06-18 22:15:00 TSHK1
06890100 DELAWARE R NR MUSCOTAH, KS 27 4.22 287 35,600 2024-06-18 22:30:00 MSCK1
06890898 PERRY LK NR PERRY, KS   897.07

 

  2024-06-18 22:30:00 PRRK1
06890900 DELAWARE R AT PERRY, KS   31.43 2,040 14,000 2024-06-18 22:45:00  
06891000 KANSAS R AT LECOMPTON, KS 17 6.47 9,500 483,000 2024-06-18 22:30:00 LCPK1
06891080 KANSAS R AT LAWRENCE, KS 18 13.81 10,400 107,000 2024-06-18 22:50:00 LWRK1
06891200 WAKARUSA R AT WAKARUSA, KS 15 2.59

 

  2024-06-18 22:15:00 WRWK1
06891260 WAKARUSA R NR RICHLAND, KS   3.35 3.93 18,600 2024-06-18 22:30:00 RCHK1
06891478 CLINTON LK NR LAWRENCE, KS   877.24

 

  2024-06-18 22:30:00 CLIK1
06891500 WAKARUSA R NR LAWRENCE, KS 23 4.37 16.4 24,200 2024-06-18 22:30:00 LAWK1
06891850 STRANGER C AT EASTON, KS 17 3.40 122 10,200 2024-06-18 22:30:00 ESTK1
06892000 STRANGER C NR TONGANOXIE, KS 23 3.39 147 40,000 2024-06-18 22:30:00 TNGK1
06892350 KANSAS R AT DESOTO, KS 26 8.85 11,600 170,000 2024-06-18 22:45:00 DSOK1
06892360 KILL C AT 95TH ST NR DESOTO, KS   4.74 2.02 8,460 2024-06-18 22:30:00  
06892493 CEDAR C AT 95TH ST NR DESOTO, KS   76.55

 

  2024-06-18 22:30:00  
06892494 CAMP C AT 95TH ST NR DESOTO, KS   3.11

 

  2024-06-18 22:00:00  
06892495 CEDAR C NR DESOTO, KS   57.23 6.24 7,840 2024-06-18 22:30:00  
06892513 MILL C AT JOHNSON DRIVE, SHAWNEE, KS   44.81 4.35 11,900 2024-06-18 22:45:00  
06892518 KANSAS R NR LAKE QUIVIRA, KS   12.22 13,300 109,000 2024-06-18 21:45:00  
06892900 TURKEY CREEK AT MISSION, KS   3.56

 

  2024-06-18 22:15:00  
06892950 KANSAS R AT KANSAS CITY, KS 32.90 17.31

 

  2024-06-18 21:45:00 KCKK1
06893080 BLUE R NR STANLEY, KS 16 3.50 1.97 20,200 2024-06-18 22:45:00 STAK1
06893100 BLUE R AT KENNETH RD, OVERLAND PARK, KS   4.86 3.24 12,400 2024-06-18 22:30:00  
06893300 INDIAN C AT OVERLAND PARK, KS 14 5.69 13.6 14,400 2024-06-18 22:15:00 OPDK1
06893350 TOMAHAWK C NR OVERLAND PARK, KS 13 1.91 3.11 9,140 2024-06-18 22:15:00 TCRK1
06893390 INDIAN C AT STATE LINE RD, LEAWOOD, KS 20 10.30 33.6 23,600 2024-06-18 22:30:00 ICLK1
06910800 MARAIS DES CYGNES R NR READING, KS 19 2.44 10.2 67,400 2024-06-18 22:45:00 RDNK1
06910997 MELVERN LK NR MELVERN, KS   1037.17

 

  2024-06-18 22:30:00 MLVK1
06911000 MARAIS DES CYGNES R AT MELVERN, KS   3.87 263 68,500 2024-06-18 22:45:00  
06911490 SALT C AT LYNDON, KS 10 0.64 3.00 16,400 2024-06-18 22:30:00 LNDK1
06911900 DRAGOON C NR BURLINGAME, KS 19 7.95 5.06 25,000 2024-06-18 22:00:00 BRGK1
06912490 POMONA LK NR QUENEMO, KS   976.75

 

  2024-06-18 22:45:00 PLKK1
06912500 HUNDRED AND TEN MILE C NR QUENEMO, KS   3.41 90.6 38,600 2024-06-18 21:45:00  
06913000 MARAIS DES CYGNES R NR POMONA, KS 20 2.73 443 69,400 2024-06-18 22:30:00 PMNK1
06913500 MARAIS DES CYGNES R NR OTTAWA, KS 30 5.84 445 142,000 2024-06-18 22:30:00 OTWK1
06914000 POTTAWATOMIE C NR GARNETT, KS 26 3.77 42.3 57,000 2024-06-18 22:45:00 GRTK1
06914500 POTTAWATOMIE C AT LANE, KS 23 5.98 91.7 75,000 2024-06-18 22:30:00 LNEK1
06914950 BIG BULL C NR EDGERTON, KS   1.61 0.28 8,320 2024-06-18 22:00:00  
06914990 L BULL C NR SPRING HILL, KS   2.62 0.69 3,130 2024-06-18 22:30:00  
06914995 HILLSDALE LK NR HILLSDALE, KS   917.08

 

  2024-06-18 22:30:00 HILK1
06915000 BIG BULL C NR HILLSDALE, KS   2.12 15.5 45,200 2024-06-18 22:30:00  
06915800 MARAIS DES CYGNES R AT LA CYGNE, KS 25 6.50 1,060 131,000 2024-06-18 22:15:00 LCGK1
06916600 MARAIS DES CYGNES R NR KS-MO ST LINE, KS 27 6.57 1,230 137,000 2024-06-18 22:45:00 TPOK1
06917000 L OSAGE R AT FULTON, KS 22 4.00 82.4 62,800 2024-06-18 22:15:00 FTNK1
06917240 MARMATON R NR UNIONTOWN, KS 12 0.14 22.4 16,900 2024-06-18 22:00:00 UUUK1
06917500 MARMATON R NR FORT SCOTT, KS 38 8.54 70.3 38,100 2024-06-18 22:30:00 FSKK1
07137000 FRONTIER DITCH NR COOLIDGE, KS   11.17 30.2   2024-06-18 21:45:00  
07137010 FRONTIER DITCH RETURN NR COOLIDGE, KS   2.73 18.4   2024-06-18 22:45:00  
07137500 ARKANSAS R NR COOLIDGE, KS 8 2.51 54.6 158,000 2024-06-18 22:15:00 COOK1
07138000 ARKANSAS R AT SYRACUSE, KS 10 3.99 62.0 174,000 2024-06-18 22:15:00 SYRK1
07138020 ARKANSAS R AT KENDALL, KS   5.55 48.3 1,320 2024-06-18 22:45:00 KENK1
07138050 AMAZON GREAT EASTERN DITCH NR LAKIN, KS   2.79 Eqp   2024-06-18 22:00:00  
07138063 SOUTHSIDE DITCH NR LAKIN, KS   1.44

 

  2024-06-18 22:00:00  
07138064 SOUTHSIDE DITCH RETURN NR DEERFIELD, KS   1.98 0.00   2024-06-18 22:00:00  
07138070 ARKANSAS R AT DEERFIELD, KS 14 5.61 0.00 2,740 2024-06-18 22:45:00 DRFK1
07138075 FARMERS DITCH NR DEERFIELD, KS   1.30

 

  2024-06-18 22:00:00  
07139000 ARKANSAS R AT GARDEN CITY, KS 10 5.13 0.00 130,000 2024-06-18 22:30:00 GCKK1
07139500 ARKANSAS R AT DODGE CITY, KS 11 7.24

 

82,000 2024-06-18 22:00:00 DDCK1
07140850 PAWNEE R NR BURDETT, KS 30 2.38 0.00 4,290 2024-06-18 22:00:00 BTTK1
07140880 BUCKNER C AB HORSETHIEF RE NR JETMORE, KS   4.99 92.9 2,720 2024-06-18 22:15:00 HTAK1
07140885 HORSETHIEF RE NR JETMORE, KS   2414.76

 

  2024-06-18 22:30:00 HTRK1
07140890 BUCKNER C BL HORSETHIEF RE NR JETMORE, KS   2.97 1.70 561 2024-06-18 22:45:00 HTBK1
07140900 BUCKNER C NR JETMORE, KS   2.59 1.46 640 2024-06-18 22:15:00 JTRK1
07141000 BUCKNER C AT HANSTON, KS   3.18 0.00 1,480 2024-06-18 22:45:00 HSNK1
07141200 PAWNEE R AT ROZEL, KS 31 8.46 12.2 16,300 2024-06-18 22:30:00 ROZK1
07141220 ARKANSAS R NR LARNED, KS   4.89 53.3 5,800 2024-06-18 21:45:00 LRDK1
07141300 ARKANSAS R AT GREAT BEND, KS 12 1.24 43.0 27,800 2024-06-18 22:30:00 GTBK1
07141780 WALNUT C AT NEKOMA, KS 29 7.21 7.93 5,790 2024-06-18 22:15:00 RCNK1
07141900 WALNUT C AT ALBERT, KS 24 3.38 8.60 12,700 2024-06-18 21:45:00 ALBK1
07142019 CHEYENNE BOTTOMS DV NR GREAT BEND, KS   2.93 62.2 449 2024-06-18 22:00:00  
07142300 RATTLESNAKE C NR MACKSVILLE, KS 9 2.67 0.00 17,700 2024-06-18 22:00:00 MACK1
07142575 RATTLESNAKE C NR ZENITH, KS 17 11.88 3.67 29,300 2024-06-18 22:45:00 ZENK1
07142680 ARKANSAS R NR NICKERSON, KS   9.41 108 10,700 2024-06-18 22:00:00  
07143300 COW C NR LYONS, KS 18 4.10 9.48 28,000 2024-06-18 22:30:00 LYNK1
07143310 COW C NR HUTCHINSON, KS 9.5 2.03

 

  2024-06-18 22:15:00 HTCK1
07143330 ARKANSAS R NR HUTCHINSON, KS 10 2.26 119 24,700 2024-06-18 22:30:00 HAVK1
07143375 ARKANSAS R NR MAIZE, KS   5.30 192 45,900 2024-06-18 22:15:00  
07143665 L ARKANSAS R AT ALTA MILLS, KS 22 -0.09 7.14 30,100 2024-06-18 22:15:00 ALMK1
07143672 L ARKANSAS R AT HWY 50 NR HALSTEAD, KS 25 5.86 15.0 14,200 2024-06-18 22:30:00 HTDK1
07144050 EMMA C AT SEDGWICK, KS 19 -1.29 1.97 7,690 2024-06-18 22:00:00 SEMK1
07144100 L ARKANSAS R NR SEDGWICK, KS 22 2.39 33.2 19,100 2024-06-18 22:15:00 SEDK1
07144200 L ARKANSAS R AT VALLEY CENTER, KS   1.34 61.1 32,000 2024-06-18 22:00:00  
07144201 FLOODWAY AT L ARKANSAS R AT VALLEY CENTER, KS   2.58 0.00 20,100 2024-06-18 22:00:00  
07144300 ARKANSAS R AT WICHITA, KS   3.21 235 48,400 2024-06-18 22:45:00  
07144301 FLOODWAY AT ARKANSAS R AT WICHITA, KS   6.49 0.00 20,400 2024-06-18 21:45:00  
07144325 GYPSUM C AT OLIVER ST, WICHITA, KS   8.13 0.77 6,460 2024-06-18 22:15:00  
07144470 COWSKIN C AT 29TH ST NORTH OF WICHITA, KS   10.39

 

1,400 2024-06-18 22:00:00  
07144480 COWSKIN C AT 119TH ST AT WICHITA, KS 18 6.90 0.98 5,870 2024-06-18 22:30:00 COWK1
07144486 CALFSKIN C AT 119TH ST, WICHITA, KS   4.50 0.00 5,700 2024-06-18 22:00:00  
07144490 COWSKIN C AT KELLOGG ST, WICHITA, KS   7.21 1.54 4,970 2024-06-18 22:15:00  
07144550 ARKANSAS R AT DERBY, KS 12 1.18 279 58,300 2024-06-18 22:00:00 DRBK1
07144570 ARKANSAS R AT MULVANE, KS 16.5 5.67 280 39,800 2024-06-18 22:15:00 MULK1
07144780 NF NINNESCAH R AB CHENEY RE, KS   5.84 23.3 87,000 2024-06-18 22:30:00  
07144790 CHENEY RE NR CHENEY, KS   1415.54

 

  2024-06-18 22:00:00 CHNK1
07144910 SF NINNESCAH R NR PRATT, KS 9 2.34 1.64 26,200 2024-06-18 22:00:00 PTTK1
07145200 SF NINNESCAH R NR MURDOCK, KS 8 3.34 71.0 28,700 2024-06-18 22:00:00 MDKK1
07145500 NINNESCAH R NR PECK, KS 17 2.21 60.5 70,000 2024-06-18 22:00:00 PECK1
07145600 ARKANSAS R ON HWY 160 AT OXFORD, KS 17 7.80 530 51,200 2024-06-18 22:45:00 OXFK1
07145700 SLATE C AT WELLINGTON, KS 19 3.53 5.43 28,500 2024-06-18 22:00:00 WELK1
07146500 ARKANSAS R AT ARKANSAS CITY, KS 11 3.63 620 103,000 2024-06-18 22:00:00 ARCK1
07146800 WB WALNUT R NR EL DORADO, KS 21 6.13 10.1 7,240 2024-06-18 22:00:00 EDWK1
07147070 WHITEWATER R AT TOWANDA, KS   1.82 33.0 80,600 2024-06-18 22:30:00 TOWK1
07147190 WHITEWATER R AT AUGUSTA, KS 21 3.74

 

  2024-06-18 22:15:00 AGSK1
07147800 WALNUT R AT WINFIELD, KS 18 1.37 234 105,000 2024-06-18 22:00:00 WFDK1
07147900 WALNUT R AT ARKANSAS CITY, KS 18 3.13

 

  2024-06-18 22:15:00 ARKK1
07148111 GROUSE C NR SILVERDALE, KS   4.35 69.3 55,500 2024-06-18 22:15:00  
07149000 MEDICINE LODGE R NR KIOWA, KS 10 -0.29 28.5 16,000 2024-06-18 22:30:00 KIOK1
07151500 CHIKASKIA R NR CORBIN, KS 10 2.04 37.9 60,000 2024-06-18 22:30:00 CBNK1
07155590 CIMARRON R NR ELKHART, KS 12 5.02 0.00 21,500 2024-06-18 22:15:00 EHTK1
07156900 Cimarron River near Forgan, OK 5 2.35 8.92 69,000 2024-06-18 22:00:00 FRGO2
07157500 CROOKED C NR ENGLEWOOD, KS 6.5 2.68 0.65 13,600 2024-06-18 22:30:00 ENWK1
07157740 Cimarron R near Buttermilk, KS   7.22 10.5 5,740 2024-06-18 22:15:00 BTMK1
07157940 BLUFF C NR BUTTERMILK, KS   5.40 3.80 7,030 2024-06-18 22:00:00 BBCK1
07165750 VERDIGRIS R NR VIRGIL, KS   7.42 64.6 15,500 2024-06-18 22:00:00  
07166500 VERDIGRIS R NR ALTOONA, KS 19 5.51 1,190 71,000 2024-06-18 22:45:00 ATOK1
07167500 OTTER C AT CLIMAX, KS   1.32 3.57 107,000 2024-06-18 22:15:00  
07169500 FALL R AT FREDONIA, KS 17 2.93 19.0 77,800 2024-06-18 22:00:00 FRNK1
07169800 ELK R AT ELK FALLS, KS 21 2.47 4.44 200,000 2024-06-18 22:00:00 ELFK1
07170500 VERDIGRIS R AT INDEPENDENCE, KS 30 5.98 1,460 153,000 2024-06-18 22:00:00 IDPK1
07170700 BIG HILL C NR CHERRYVALE, KS   2.88

 

36,000 2024-06-18 22:00:00  
07170990 VERDIGRIS R AT COFFEYVILLE, KS   5.99 2,010 185,000 2024-06-18 22:45:00  
07172000 CANEY R NR ELGIN, KS   1.86 68.5 104,000 2024-06-18 22:00:00  
07179300 NEOSHO R NR PARKERVILLE, KS   7.73 1.34 7,140 2024-06-18 22:15:00 PKVK1
07179500 NEOSHO R AT COUNCIL GROVE, KS   7.94 4.12 121,000 2024-06-18 22:00:00  
07179700 ROCK C NR DUNLAP, KS   9.17 23.0 15,200 2024-06-18 22:15:00  
07179710 NEOSHO R NR DUNLAP, KS   11.32

 

  2024-06-18 22:00:00  
07179730 NEOSHO R NR AMERICUS, KS 26 3.37 62.6 17,400 2024-06-18 22:15:00 AMCK1
07179750 NEOSHO R AT BURLINGAME RD NR EMPORIA, KS   3.94 95.7 17,400 2024-06-18 22:30:00  
07179785 NF COTTONWOOD R NR DURHAM, KS   9.92 12.7 5,700 2024-06-18 22:30:00  
07179795 N COTTONWOOD R BL MARION LK, KS   4.66 1.08 8,120 2024-06-18 22:30:00  
07180200 COTTONWOOD R AT MARION, KS   4.64

 

29,100 2024-06-18 22:30:00  
07180400 COTTONWOOD R NR FLORENCE, KS 22 3.20 91.7 73,700 2024-06-18 22:15:00 FLRK1
07180500 CEDAR C NR CEDAR POINT, KS   4.30 32.2 52,400 2024-06-18 22:15:00  
07182000 COTTONWOOD R AT COTTONWOOD FALLS, KS   9.41 373 14,700 2024-06-18 22:00:00 CWSK1
07182200 SF COTTONWOOD R NR BAZAAR, KS   7.48 77.6 25,100 2024-06-18 22:30:00  
07182250 COTTONWOOD R NR PLYMOUTH, KS 32 4.91 607 92,900 2024-06-18 22:00:00 PLYK1
07182260 COTTONWOOD R AT EMPORIA, KS 20 3.96 653 20,800 2024-06-18 22:30:00 EMPK1
07182390 NEOSHO R AT NEOSHO RAPIDS, KS 22 5.33 1,050 34,100 2024-06-18 22:30:00 NEOK1
07182395 NEOSHO R AT HARTFORD, KS   4.89

 

  2024-06-18 22:30:00  
07182510 NEOSHO R AT BURLINGTON, KS 27 8.96 2,020 36,500 2024-06-18 22:15:00 BRLK1
07183000 NEOSHO R NR IOLA, KS 15 8.94 4,180 436,000 2024-06-18 22:30:00 IOLK1
07183300 NEOSHO R NR ERIE, KS 29.13 15.31

 

  2024-06-18 22:15:00 EREK1
07183500 NEOSHO R NR PARSONS, KS 21 12.22 6,720 410,000 2024-06-18 22:00:00 PPFK1
07184000 LIGHTNING C NR MCCUNE, KS 12 1.07 4.56 67,500 2024-06-18 22:45:00 MCNK1
07184500 LABETTE C NR OSWEGO, KS   5.66 6.33 30,000 2024-06-18 22:00:00  
07187600 SPRING R NR BAXTER SPRINGS, KS 14 3.48 822 146,000 2024-06-18 22:30:00 BXTK1
373559097165000 McConnell C at Oliver St, Wichita, KS   12.44 0.48   2024-06-18 22:15:00  
373622097153900 McConnell C at 47th St, Wichita, KS   2.74

 

  2024-06-18 22:15:00  
375350097262800 L ARKANSAS R UPSTREAM OF ASR FAC NR SEDGWICK, KS   4.73

 

  2024-06-18 22:30:00